createdAt,value
2022-11-01T00:03:13.255Z,81.95
2022-11-01T00:13:16.876Z,82.21
2022-11-01T00:23:20.697Z,82.00
2022-11-01T00:33:24.843Z,81.76
2022-11-01T00:43:28.351Z,81.74
2022-11-01T00:53:31.867Z,81.92
2022-11-01T01:03:35.977Z,82.12
2022-11-01T01:13:39.487Z,82.44
2022-11-01T01:23:42.888Z,82.64
2022-11-01T01:33:46.343Z,82.67
2022-11-01T01:43:50.057Z,82.93
2022-11-01T01:53:55.580Z,83.30
2022-11-01T02:04:14.695Z,82.99
2022-11-01T02:14:21.174Z,83.02
2022-11-01T02:25:00.191Z,83.00
2022-11-01T02:35:05.804Z,83.01
2022-11-01T02:45:27.297Z,83.20
2022-11-01T02:55:31.152Z,83.47
2022-11-01T03:05:37.093Z,83.43
2022-11-01T03:15:54.622Z,83.51
2022-11-01T03:26:03.313Z,83.53
2022-11-01T03:36:14.457Z,83.55
2022-11-01T03:46:19.654Z,83.86
2022-11-01T03:56:23.252Z,83.74
2022-11-01T04:06:27.223Z,83.74
2022-11-01T04:16:48.970Z,83.86
2022-11-01T04:26:52.888Z,83.80
2022-11-01T04:36:56.352Z,83.78
2022-11-01T04:47:00.207Z,83.83
2022-11-01T04:57:03.989Z,84.33
2022-11-01T05:07:08.188Z,84.24
2022-11-01T05:17:11.678Z,84.18
2022-11-01T05:27:15.123Z,84.45
2022-11-01T05:37:18.599Z,84.69
2022-11-01T05:47:22.586Z,85.12
2022-11-01T05:57:32.326Z,85.80
2022-11-01T06:07:36.659Z,85.89
2022-11-01T06:17:40.180Z,86.17
2022-11-01T06:27:44.112Z,86.53
2022-11-01T06:37:47.812Z,86.78
2022-11-01T06:47:51.832Z,87.03
2022-11-01T06:57:56.900Z,87.06
2022-11-01T07:08:00.824Z,87.11
2022-11-01T07:18:07.848Z,87.06
2022-11-01T07:28:11.812Z,87.13
2022-11-01T07:38:15.493Z,87.13
2022-11-01T07:48:21.096Z,87.25
2022-11-01T07:58:24.912Z,87.05
2022-11-01T08:08:28.666Z,86.73
2022-11-01T08:18:32.434Z,86.56
2022-11-01T08:28:36.150Z,86.53
2022-11-01T08:38:39.636Z,86.51
2022-11-01T08:48:43.470Z,86.65
2022-11-01T08:58:49.223Z,86.36
2022-11-01T09:08:53.346Z,86.44
2022-11-01T09:18:57.295Z,86.31
2022-11-01T09:29:00.964Z,86.31
2022-11-01T09:39:04.640Z,85.95
2022-11-01T09:49:09.291Z,85.32
2022-11-01T09:59:15.304Z,84.84
2022-11-01T10:09:19.657Z,84.40
2022-11-01T10:19:25.736Z,83.96
2022-11-01T10:29:33.236Z,83.29
2022-11-01T10:40:00.098Z,82.78
2022-11-01T10:50:07.606Z,81.75
2022-11-01T11:00:18.089Z,81.28
2022-11-01T11:10:26.089Z,80.95
2022-11-01T11:20:31.218Z,80.66
2022-11-01T11:30:35.659Z,80.13
2022-11-01T11:40:48.167Z,79.58
2022-11-01T11:51:00.415Z,79.13
2022-11-01T12:01:07.916Z,78.78
2022-11-01T12:11:11.823Z,78.43
2022-11-01T12:21:21.678Z,78.11
2022-11-01T12:31:31.237Z,78.18
2022-11-01T12:41:35.253Z,77.94
2022-11-01T12:51:44.988Z,77.73
2022-11-01T13:01:48.279Z,77.53
2022-11-01T13:11:59.694Z,77.50
2022-11-01T13:22:06.418Z,77.53
2022-11-01T13:32:10.181Z,77.44
2022-11-01T13:42:15.652Z,77.45
2022-11-01T13:52:20.992Z,77.45
2022-11-01T14:02:45.958Z,77.50
2022-11-01T14:13:08.847Z,77.29
2022-11-01T14:23:51.800Z,77.16
2022-11-01T14:34:00.146Z,77.10
2022-11-01T14:44:07.711Z,77.15
2022-11-01T14:54:18.688Z,77.31
2022-11-01T15:04:24.097Z,77.53
2022-11-01T15:14:35.520Z,77.67
2022-11-01T15:24:39.333Z,77.53
2022-11-01T15:34:51.371Z,77.86
2022-11-01T15:44:55.052Z,77.96
2022-11-01T15:54:57.663Z,78.22
2022-11-01T16:05:01.695Z,78.41
2022-11-01T16:15:09.312Z,78.77
2022-11-01T16:25:16.711Z,79.09
2022-11-01T16:35:31.263Z,79.22
2022-11-01T16:45:35.066Z,79.40
2022-11-01T16:55:37.987Z,79.68
2022-11-01T17:05:41.562Z,79.90
2022-11-01T17:15:47.618Z,80.14
2022-11-01T17:25:53.466Z,80.34
2022-11-01T17:35:57.783Z,80.35
2022-11-01T17:46:02.167Z,80.41
2022-11-01T17:56:06.530Z,80.64
2022-11-01T18:06:10.384Z,80.78
2022-11-01T18:16:16.573Z,81.05
2022-11-01T18:26:21.247Z,81.23
2022-11-01T18:36:29.702Z,81.18
2022-11-01T18:46:40.326Z,81.51
2022-11-01T18:56:47.987Z,81.52
2022-11-01T19:06:56.493Z,81.56
2022-11-01T19:16:59.758Z,81.74
2022-11-01T19:27:11.102Z,81.75
2022-11-01T19:37:16.629Z,82.07
2022-11-01T19:47:25.091Z,82.23
2022-11-01T19:57:28.567Z,82.53
2022-11-01T20:07:32.377Z,82.58
2022-11-01T20:17:36.341Z,82.78
2022-11-01T20:27:40.340Z,82.91
2022-11-01T20:37:43.959Z,83.08
2022-11-01T20:47:47.326Z,83.26
2022-11-01T20:57:50.858Z,84.03
2022-11-01T21:07:53.455Z,84.07
2022-11-01T21:17:57.791Z,83.88
2022-11-01T21:28:11.407Z,83.76
2022-11-01T21:38:33.977Z,83.78
2022-11-01T21:48:37.175Z,83.71
2022-11-01T21:58:40.717Z,83.75
2022-11-01T22:08:44.394Z,83.70
2022-11-01T22:18:48.372Z,83.69
2022-11-01T22:28:52.960Z,83.73
2022-11-01T22:38:58.053Z,83.78
2022-11-01T22:49:06.501Z,83.69
2022-11-01T22:59:10.028Z,83.63
2022-11-01T23:09:12.827Z,83.48
2022-11-01T23:19:16.811Z,83.50
2022-11-01T23:29:20.579Z,83.68
2022-11-01T23:39:29.357Z,83.65
2022-11-01T23:49:34.481Z,83.60
2022-11-01T23:59:38.753Z,83.61
